createdAt,value
2019-05-30T00:02:02.624Z,6.87
2019-05-30T00:04:30.073Z,6.60
2019-05-30T00:06:58.656Z,8.30
2019-05-30T00:09:26.141Z,7.17
2019-05-30T00:11:54.677Z,6.97
2019-05-30T00:14:22.070Z,6.50
2019-05-30T00:16:49.491Z,6.07
2019-05-30T00:19:16.827Z,6.93
2019-05-30T00:21:44.189Z,8.57
2019-05-30T00:24:11.535Z,7.20
2019-05-30T00:26:38.896Z,7.13
2019-05-30T00:29:06.696Z,7.50
2019-05-30T00:31:34.140Z,5.00
2019-05-30T00:34:02.490Z,8.47
2019-05-30T00:36:30.403Z,5.93
2019-05-30T00:38:57.788Z,6.03
2019-05-30T00:41:25.153Z,7.60
2019-05-30T00:43:52.581Z,5.50
2019-05-30T00:46:19.894Z,4.93
2019-05-30T00:48:47.232Z,8.97
2019-05-30T00:51:14.542Z,5.33
2019-05-30T00:53:41.906Z,7.57
2019-05-30T00:56:09.313Z,7.70
2019-05-30T00:58:36.710Z,6.53
2019-05-30T01:01:05.133Z,7.23
2019-05-30T01:03:32.523Z,7.70
2019-05-30T01:06:00.798Z,7.57
2019-05-30T01:08:28.221Z,9.43
2019-05-30T01:10:56.873Z,6.40
2019-05-30T01:13:24.336Z,7.27
2019-05-30T01:15:51.743Z,7.23
2019-05-30T01:18:19.159Z,8.20
2019-05-30T01:20:46.479Z,7.53
2019-05-30T01:23:13.783Z,7.37
2019-05-30T01:25:41.151Z,12.63
2019-05-30T01:28:08.572Z,8.30
2019-05-30T01:30:35.903Z,6.37
2019-05-30T01:33:03.814Z,7.87
2019-05-30T01:35:31.286Z,11.87
2019-05-30T01:37:59.690Z,7.73
2019-05-30T01:40:27.108Z,6.90
2019-05-30T01:42:54.564Z,8.00
2019-05-30T01:45:21.919Z,6.03
2019-05-30T01:47:49.335Z,7.67
2019-05-30T01:50:16.767Z,9.57
2019-05-30T01:52:44.195Z,12.40
2019-05-30T01:55:11.945Z,8.53
2019-05-30T01:57:39.310Z,8.97
2019-05-30T02:00:19.849Z,11.90
2019-05-30T02:02:37.836Z,10.30
2019-05-30T02:05:05.645Z,9.03
2019-05-30T02:07:33.083Z,10.53
2019-05-30T02:10:01.153Z,8.47
2019-05-30T02:12:28.511Z,16.73
2019-05-30T02:14:55.949Z,8.33
2019-05-30T02:17:23.518Z,13.67
2019-05-30T02:19:50.916Z,12.07
2019-05-30T02:22:18.319Z,12.00
2019-05-30T02:24:45.682Z,10.10
2019-05-30T02:27:13.097Z,9.17
2019-05-30T02:29:40.445Z,8.07
2019-05-30T02:32:09.246Z,8.50
2019-05-30T02:34:36.877Z,6.73
2019-05-30T02:37:06.080Z,6.50
2019-05-30T02:39:33.292Z,9.57
2019-05-30T02:42:00.982Z,6.57
2019-05-30T02:44:28.420Z,5.30
2019-05-30T02:46:58.602Z,8.77
2019-05-30T02:49:26.163Z,8.93
2019-05-30T02:51:53.557Z,11.07
2019-05-30T02:54:20.989Z,7.13
2019-05-30T02:56:48.365Z,9.17
2019-05-30T02:59:15.785Z,9.10
2019-05-30T03:02:00.214Z,5.90
2019-05-30T03:04:12.909Z,7.07
2019-05-30T03:06:40.490Z,6.77
2019-05-30T03:09:09.158Z,7.87
2019-05-30T03:11:36.994Z,6.73
2019-05-30T03:14:06.464Z,9.20
2019-05-30T03:16:33.414Z,9.43
2019-05-30T03:19:01.902Z,5.83
2019-05-30T03:21:29.368Z,7.87
2019-05-30T03:23:56.716Z,8.17
2019-05-30T03:26:24.191Z,7.07
2019-05-30T03:28:53.509Z,8.47
2019-05-30T03:31:28.035Z,7.83
2019-05-30T03:33:49.598Z,7.93
2019-05-30T03:36:28.489Z,5.07
2019-05-30T03:38:45.993Z,8.00
2019-05-30T03:41:13.362Z,8.47
2019-05-30T03:43:40.678Z,7.33
2019-05-30T03:46:10.495Z,4.93
2019-05-30T03:48:39.093Z,4.90
2019-05-30T03:51:08.823Z,6.37
2019-05-30T03:53:35.598Z,4.27
2019-05-30T03:56:04.638Z,7.60
2019-05-30T03:58:39.686Z,4.63
2019-05-30T04:01:08.069Z,4.43
2019-05-30T04:03:36.676Z,4.27
2019-05-30T04:06:04.379Z,5.03
2019-05-30T04:08:31.799Z,7.33
2019-05-30T04:10:59.941Z,4.13
2019-05-30T04:13:40.975Z,3.83
2019-05-30T04:16:08.664Z,4.10
2019-05-30T04:18:36.202Z,4.97
2019-05-30T04:21:03.702Z,3.50
2019-05-30T04:23:31.061Z,4.57
2019-05-30T04:26:00.679Z,4.13
2019-05-30T04:28:27.715Z,4.83
2019-05-30T04:30:55.228Z,3.77
2019-05-30T04:33:32.552Z,9.77
2019-05-30T04:35:51.614Z,3.83
2019-05-30T04:38:19.501Z,6.53
2019-05-30T04:40:47.090Z,4.80
2019-05-30T04:43:15.454Z,6.10
2019-05-30T04:45:43.043Z,4.90
2019-05-30T04:48:11.675Z,5.03
2019-05-30T04:50:39.248Z,5.50
2019-05-30T04:53:06.628Z,5.50
2019-05-30T04:55:33.929Z,7.07
2019-05-30T04:58:01.272Z,9.47
2019-05-30T05:00:28.671Z,5.00
2019-05-30T05:02:55.988Z,5.93
2019-05-30T05:05:26.750Z,3.97
2019-05-30T05:07:52.523Z,5.43
2019-05-30T05:10:20.439Z,12.13
2019-05-30T05:12:47.908Z,11.20
2019-05-30T05:15:16.428Z,4.67
2019-05-30T05:17:44.003Z,6.23
2019-05-30T05:20:12.958Z,6.67
2019-05-30T05:22:40.572Z,7.53
2019-05-30T05:25:08.384Z,7.83
2019-05-30T05:27:35.733Z,7.00
2019-05-30T05:30:04.649Z,6.80
2019-05-30T05:32:32.062Z,7.07
2019-05-30T05:34:59.462Z,6.30
2019-05-30T05:37:27.336Z,6.63
2019-05-30T05:39:54.789Z,6.50
2019-05-30T05:42:23.762Z,6.40
2019-05-30T05:44:51.716Z,4.93
2019-05-30T05:47:20.387Z,2.93
2019-05-30T05:49:47.913Z,5.10
2019-05-30T05:52:16.848Z,4.67
2019-05-30T05:54:44.492Z,3.03
2019-05-30T05:57:11.891Z,3.23
2019-05-30T05:59:39.295Z,5.40
2019-05-30T06:02:06.702Z,6.53
2019-05-30T06:04:34.124Z,3.30
2019-05-30T06:07:01.459Z,6.50
2019-05-30T06:09:28.854Z,4.40
2019-05-30T06:11:56.262Z,2.77
2019-05-30T06:14:24.200Z,4.53
2019-05-30T06:16:51.663Z,3.13
2019-05-30T06:19:19.251Z,4.60
2019-05-30T06:21:53.863Z,4.77
2019-05-30T06:24:15.648Z,2.77
2019-05-30T06:26:42.993Z,2.77
2019-05-30T06:29:10.442Z,6.33
2019-05-30T06:31:37.820Z,4.83
2019-05-30T06:34:05.213Z,2.27
2019-05-30T06:36:33.552Z,1.70
2019-05-30T06:39:00.858Z,4.00
2019-05-30T06:41:28.294Z,4.27
2019-05-30T06:43:55.666Z,7.70
2019-05-30T06:46:24.135Z,3.80
2019-05-30T06:48:51.518Z,3.33
2019-05-30T06:51:18.880Z,4.53
2019-05-30T06:53:46.300Z,2.23
2019-05-30T06:56:13.785Z,1.43
2019-05-30T06:58:48.495Z,4.23
2019-05-30T07:01:10.244Z,2.83
2019-05-30T07:03:37.636Z,1.63
2019-05-30T07:06:05.464Z,2.70
2019-05-30T07:08:33.240Z,9.50
2019-05-30T07:11:00.620Z,9.23
2019-05-30T07:13:29.145Z,21.33
2019-05-30T07:15:56.732Z,10.30
2019-05-30T07:18:25.335Z,61.77
2019-05-30T07:20:52.860Z,57.23
2019-05-30T07:23:20.305Z,53.20
2019-05-30T07:25:47.722Z,42.13
2019-05-30T07:28:15.068Z,10.17
2019-05-30T07:30:42.634Z,6.83
2019-05-30T07:33:09.996Z,5.37
2019-05-30T07:35:37.356Z,3.43
2019-05-30T07:38:04.785Z,7.53
2019-05-30T07:40:32.817Z,7.30
2019-05-30T07:43:00.388Z,3.63
2019-05-30T07:45:28.924Z,6.20
2019-05-30T07:47:56.535Z,4.53
2019-05-30T07:50:23.894Z,3.97
2019-05-30T07:52:51.324Z,6.43
2019-05-30T07:55:18.664Z,6.73
2019-05-30T07:57:46.006Z,4.40
2019-05-30T08:00:13.804Z,3.77
2019-05-30T08:02:41.243Z,2.30
2019-05-30T08:05:22.854Z,5.37
2019-05-30T08:07:37.610Z,2.20
2019-05-30T08:10:05.826Z,0.70
2019-05-30T08:12:34.129Z,6.50
2019-05-30T08:15:01.694Z,1.27
2019-05-30T08:17:29.484Z,2.37
2019-05-30T08:19:56.987Z,2.20
2019-05-30T08:22:24.399Z,3.73
2019-05-30T08:24:51.712Z,1.80
2019-05-30T08:27:19.139Z,2.77
2019-05-30T08:29:46.444Z,3.30
2019-05-30T08:32:13.898Z,2.30
2019-05-30T08:34:41.218Z,6.65
2019-05-30T08:37:08.556Z,3.47
2019-05-30T08:39:37.216Z,7.25
2019-05-30T08:42:04.869Z,4.35
2019-05-30T08:44:32.149Z,4.30
2019-05-30T08:46:59.505Z,6.80
2019-05-30T08:49:26.925Z,3.60
2019-05-30T08:51:55.096Z,3.87
2019-05-30T08:54:22.451Z,1.80
2019-05-30T08:56:49.844Z,5.23
2019-05-30T08:59:17.204Z,1.90
2019-05-30T09:01:45.990Z,1.30
2019-05-30T09:04:13.541Z,2.93
2019-05-30T09:06:41.806Z,1.17
2019-05-30T09:09:09.353Z,4.53
2019-05-30T09:11:37.683Z,3.27
2019-05-30T09:14:05.770Z,2.03
2019-05-30T09:16:33.219Z,1.87
2019-05-30T09:19:00.597Z,1.40
2019-05-30T09:21:29.093Z,3.63
2019-05-30T09:24:00.897Z,1.23
2019-05-30T09:26:25.479Z,2.30
2019-05-30T09:28:52.943Z,3.53
2019-05-30T09:31:20.248Z,1.63
2019-05-30T09:33:48.638Z,4.77
2019-05-30T09:36:16.155Z,3.73
2019-05-30T09:38:43.595Z,1.03
2019-05-30T09:41:10.942Z,3.20
2019-05-30T09:43:39.789Z,2.23
2019-05-30T09:46:07.271Z,4.00
2019-05-30T09:48:34.710Z,2.67
2019-05-30T09:51:02.105Z,3.63
2019-05-30T09:53:29.449Z,2.80
2019-05-30T09:55:56.845Z,2.93
2019-05-30T09:58:24.262Z,3.30
2019-05-30T10:00:52.267Z,2.50
2019-05-30T10:03:19.701Z,3.60
2019-05-30T10:05:48.546Z,5.83
2019-05-30T10:08:15.976Z,2.67
2019-05-30T10:10:45.306Z,1.65
2019-05-30T10:13:12.541Z,4.80
2019-05-30T10:15:40.037Z,2.60
2019-05-30T10:18:07.545Z,4.50
2019-05-30T10:20:35.080Z,5.90
2019-05-30T10:23:03.653Z,1.77
2019-05-30T10:25:31.415Z,1.40
2019-05-30T10:27:59.033Z,4.27
2019-05-30T10:30:26.471Z,3.87
2019-05-30T10:32:53.952Z,3.07
2019-05-30T10:35:21.417Z,2.30
2019-05-30T10:37:49.153Z,2.33
2019-05-30T10:40:16.655Z,1.07
2019-05-30T10:42:44.069Z,2.20
2019-05-30T10:45:11.432Z,2.13
2019-05-30T10:47:39.028Z,1.60
2019-05-30T10:50:07.462Z,1.05
2019-05-30T10:52:34.897Z,2.05
2019-05-30T10:55:02.341Z,1.57
2019-05-30T10:57:29.762Z,2.50
2019-05-30T10:59:57.197Z,3.90
2019-05-30T11:02:24.522Z,2.37
2019-05-30T11:04:53.027Z,1.47
2019-05-30T11:07:25.103Z,4.57
2019-05-30T11:09:54.839Z,3.70
2019-05-30T11:12:22.213Z,1.93
2019-05-30T11:14:49.848Z,3.07
2019-05-30T11:17:18.487Z,1.40
2019-05-30T11:19:45.826Z,2.10
2019-05-30T11:22:13.377Z,2.63
2019-05-30T11:24:40.924Z,1.63
2019-05-30T11:27:08.356Z,5.00
2019-05-30T11:29:35.730Z,2.93
2019-05-30T11:32:03.118Z,1.27
2019-05-30T11:34:30.540Z,1.23
2019-05-30T11:36:59.248Z,2.30
2019-05-30T11:39:26.925Z,0.90
2019-05-30T11:41:57.670Z,5.23
2019-05-30T11:44:25.146Z,1.70
2019-05-30T11:46:53.431Z,1.20
2019-05-30T11:49:20.981Z,2.17
2019-05-30T11:51:49.577Z,4.13
2019-05-30T11:54:17.368Z,2.90
2019-05-30T11:56:44.850Z,1.30
2019-05-30T11:59:12.307Z,0.73
2019-05-30T12:01:39.879Z,3.63
2019-05-30T12:04:07.666Z,1.67
2019-05-30T12:06:35.054Z,3.77
2019-05-30T12:09:03.650Z,2.00
2019-05-30T12:11:31.152Z,0.80
2019-05-30T12:13:59.512Z,1.97
2019-05-30T12:16:27.586Z,1.10
2019-05-30T12:18:55.818Z,1.77
2019-05-30T12:21:23.240Z,1.20
2019-05-30T12:23:51.922Z,1.30
2019-05-30T12:26:19.498Z,1.43
2019-05-30T12:28:46.894Z,1.37
2019-05-30T12:31:14.259Z,5.03
2019-05-30T12:33:41.722Z,1.50
2019-05-30T12:36:09.134Z,0.90
2019-05-30T12:38:36.528Z,2.97
2019-05-30T12:41:03.856Z,2.83
2019-05-30T12:43:31.354Z,1.47
2019-05-30T12:45:59.108Z,0.87
2019-05-30T12:48:26.592Z,5.47
2019-05-30T12:50:55.106Z,1.80
2019-05-30T12:53:22.618Z,2.67
2019-05-30T12:55:51.542Z,2.00
2019-05-30T12:58:20.536Z,0.90
2019-05-30T13:00:47.834Z,1.67
2019-05-30T13:03:15.182Z,1.57
2019-05-30T13:05:42.523Z,1.13
2019-05-30T13:08:20.913Z,3.30
2019-05-30T13:10:38.820Z,2.53
2019-05-30T13:13:06.308Z,1.63
2019-05-30T13:15:33.646Z,1.93
2019-05-30T13:18:01.007Z,1.97
2019-05-30T13:20:28.558Z,2.43
2019-05-30T13:22:56.274Z,2.03
2019-05-30T13:25:23.871Z,5.57
2019-05-30T13:27:51.217Z,2.60
2019-05-30T13:30:18.574Z,2.73
2019-05-30T13:32:46.154Z,3.73
2019-05-30T13:35:13.472Z,1.10
2019-05-30T13:37:40.860Z,1.10
2019-05-30T13:40:23.761Z,2.80
2019-05-30T13:42:38.324Z,1.70
2019-05-30T13:45:06.112Z,2.37
2019-05-30T13:47:33.503Z,4.53
2019-05-30T13:50:00.851Z,3.57
2019-05-30T13:52:28.189Z,5.47
2019-05-30T13:54:55.521Z,3.57
2019-05-30T13:57:22.915Z,1.30
2019-05-30T13:59:50.420Z,2.17
2019-05-30T14:02:17.751Z,1.53
2019-05-30T14:04:45.098Z,1.00
2019-05-30T14:07:13.397Z,1.53
2019-05-30T14:09:40.754Z,1.00
2019-05-30T14:12:08.733Z,3.73
2019-05-30T14:14:36.115Z,2.33
2019-05-30T14:17:03.457Z,3.03
2019-05-30T14:19:31.903Z,2.90
2019-05-30T14:21:59.349Z,3.57
2019-05-30T14:24:26.681Z,1.40
2019-05-30T14:26:54.137Z,2.40
2019-05-30T14:29:21.542Z,4.30
2019-05-30T14:31:48.952Z,5.77
2019-05-30T14:34:19.013Z,3.67
2019-05-30T14:36:46.341Z,3.73
2019-05-30T14:39:13.747Z,2.80
2019-05-30T14:41:41.082Z,3.53
2019-05-30T14:44:08.442Z,5.73
2019-05-30T14:46:35.747Z,5.00
2019-05-30T14:49:04.381Z,6.27
2019-05-30T14:51:35.164Z,5.13
2019-05-30T14:54:00.834Z,6.77
2019-05-30T14:56:28.170Z,8.77
2019-05-30T14:58:55.601Z,6.47
2019-05-30T15:01:23.012Z,7.57
2019-05-30T15:03:50.336Z,6.83
2019-05-30T15:06:17.982Z,6.57
2019-05-30T15:08:45.536Z,4.07
2019-05-30T15:11:13.814Z,6.73
2019-05-30T15:13:41.302Z,2.47
2019-05-30T15:16:08.854Z,5.13
2019-05-30T15:18:36.284Z,3.93
2019-05-30T15:21:03.595Z,5.23
2019-05-30T15:23:30.958Z,6.40
2019-05-30T15:25:58.402Z,9.60
2019-05-30T15:28:25.711Z,12.70
2019-05-30T15:30:53.030Z,8.87
2019-05-30T15:33:20.474Z,11.40
2019-05-30T15:35:47.973Z,9.83
2019-05-30T15:38:15.397Z,9.47
2019-05-30T15:40:42.955Z,9.37
2019-05-30T15:43:11.363Z,7.73
2019-05-30T15:45:38.895Z,10.73
2019-05-30T15:48:06.451Z,10.00
2019-05-30T15:50:33.906Z,9.30
2019-05-30T15:53:01.330Z,7.73
2019-05-30T15:55:28.873Z,12.93
2019-05-30T15:57:56.297Z,9.57
2019-05-30T16:00:24.043Z,8.90
2019-05-30T16:02:51.451Z,8.27
2019-05-30T16:05:20.567Z,10.43
2019-05-30T16:07:48.267Z,9.07
2019-05-30T16:10:17.030Z,10.00
2019-05-30T16:12:44.813Z,10.47
2019-05-30T16:15:13.468Z,9.20
2019-05-30T16:17:40.954Z,12.93
2019-05-30T16:20:08.547Z,8.57
2019-05-30T16:22:35.807Z,9.47
2019-05-30T16:25:03.653Z,10.00
2019-05-30T16:27:31.335Z,9.63
2019-05-30T16:29:59.176Z,8.73
2019-05-30T16:32:26.612Z,8.67
2019-05-30T16:34:53.948Z,11.43
2019-05-30T16:37:22.261Z,12.17
2019-05-30T16:40:04.484Z,11.43
2019-05-30T16:42:18.779Z,9.97
2019-05-30T16:44:46.163Z,9.07
2019-05-30T16:47:14.378Z,9.80
2019-05-30T16:49:41.809Z,13.70
2019-05-30T16:52:09.332Z,11.40
2019-05-30T16:54:36.755Z,9.43
2019-05-30T16:57:04.179Z,9.50
2019-05-30T16:59:31.625Z,10.23
2019-05-30T17:01:59.097Z,8.93
2019-05-30T17:04:27.269Z,10.77
2019-05-30T17:06:54.694Z,8.73
2019-05-30T17:09:23.368Z,7.40
2019-05-30T17:11:51.045Z,9.67
2019-05-30T17:14:19.626Z,9.13
2019-05-30T17:16:47.362Z,9.80
2019-05-30T17:19:14.710Z,9.47
2019-05-30T17:21:42.078Z,10.30
2019-05-30T17:24:09.463Z,9.10
2019-05-30T17:26:37.024Z,9.90
2019-05-30T17:29:04.478Z,10.97
2019-05-30T17:31:31.849Z,9.93
2019-05-30T17:33:59.167Z,12.37
2019-05-30T17:36:26.664Z,10.03
2019-05-30T17:38:54.066Z,10.30
2019-05-30T17:41:22.636Z,14.05
2019-05-30T17:43:50.525Z,12.33
2019-05-30T17:46:19.244Z,11.77
2019-05-30T17:48:46.621Z,13.63
2019-05-30T17:51:13.986Z,12.57
2019-05-30T17:53:41.413Z,13.00
2019-05-30T17:56:08.887Z,12.00
2019-05-30T17:58:39.250Z,11.60
2019-05-30T18:01:10.916Z,14.70
2019-05-30T18:03:38.262Z,16.07
2019-05-30T18:06:05.807Z,11.60
2019-05-30T18:08:33.259Z,13.15
2019-05-30T18:11:00.713Z,14.50
2019-05-30T18:13:29.133Z,15.70
2019-05-30T18:15:56.754Z,17.93
2019-05-30T18:18:25.810Z,20.13
2019-05-30T18:20:53.160Z,20.08
2019-05-30T18:23:21.341Z,22.77
2019-05-30T18:25:50.049Z,21.87
2019-05-30T18:28:17.678Z,20.70
2019-05-30T18:30:46.736Z,24.40
2019-05-30T18:33:14.071Z,25.52
2019-05-30T18:35:41.430Z,27.80
2019-05-30T18:38:09.004Z,27.15
2019-05-30T18:40:36.924Z,30.93
2019-05-30T18:43:04.522Z,30.90
2019-05-30T18:45:35.973Z,24.87
2019-05-30T18:48:03.450Z,29.00
2019-05-30T18:50:31.620Z,29.00
2019-05-30T18:52:59.252Z,31.73
2019-05-30T18:55:26.618Z,30.40
2019-05-30T18:57:53.919Z,29.67
2019-05-30T19:00:21.303Z,34.10
2019-05-30T19:02:48.702Z,35.15
2019-05-30T19:05:16.144Z,36.13
2019-05-30T19:07:43.549Z,33.15
2019-05-30T19:10:11.071Z,31.23
2019-05-30T19:12:40.215Z,32.73
2019-05-30T19:15:07.716Z,33.80
2019-05-30T19:17:35.982Z,37.33
2019-05-30T19:20:04.582Z,34.47
2019-05-30T19:22:32.229Z,35.57
2019-05-30T19:24:59.791Z,32.10
2019-05-30T19:27:28.358Z,36.47
2019-05-30T19:29:56.135Z,35.63
2019-05-30T19:32:23.492Z,32.80
2019-05-30T19:34:50.985Z,31.83
2019-05-30T19:37:18.521Z,28.83
2019-05-30T19:39:45.875Z,32.70
2019-05-30T19:42:13.242Z,35.70
2019-05-30T19:44:41.659Z,34.60
2019-05-30T19:47:09.277Z,33.47
2019-05-30T19:49:36.970Z,36.27
2019-05-30T19:52:04.399Z,34.93
2019-05-30T19:54:33.011Z,35.40
2019-05-30T19:57:00.573Z,28.00
2019-05-30T19:59:27.927Z,29.23
2019-05-30T20:01:55.439Z,29.10
2019-05-30T20:04:22.835Z,31.50
2019-05-30T20:06:50.152Z,26.20
2019-05-30T20:09:17.509Z,30.40
2019-05-30T20:12:01.848Z,26.73
2019-05-30T20:14:13.910Z,29.57
2019-05-30T20:16:42.016Z,28.63
2019-05-30T20:19:09.623Z,26.20
2019-05-30T20:21:37.857Z,27.80
2019-05-30T20:24:05.321Z,30.80
2019-05-30T20:26:32.649Z,25.90
2019-05-30T20:29:00.038Z,31.87
2019-05-30T20:31:27.427Z,28.87
2019-05-30T20:33:54.759Z,31.83
2019-05-30T20:36:22.099Z,29.57
2019-05-30T20:38:49.587Z,33.87
2019-05-30T20:41:16.869Z,31.40
2019-05-30T20:43:45.819Z,32.03
2019-05-30T20:46:22.789Z,31.20
2019-05-30T20:48:44.692Z,34.47
2019-05-30T20:51:20.777Z,34.50
2019-05-30T20:53:41.236Z,33.23
2019-05-30T20:56:08.647Z,35.07
2019-05-30T20:58:35.977Z,34.50
2019-05-30T21:01:03.322Z,35.90
2019-05-30T21:03:30.707Z,34.63
2019-05-30T21:05:58.138Z,36.63
2019-05-30T21:08:25.532Z,37.47
2019-05-30T21:10:53.591Z,32.40
2019-05-30T21:13:21.065Z,38.67
2019-05-30T21:15:48.464Z,39.43
2019-05-30T21:18:16.371Z,34.63
2019-05-30T21:20:44.132Z,36.43
2019-05-30T21:23:11.435Z,31.17
2019-05-30T21:25:38.996Z,33.57
2019-05-30T21:28:06.449Z,33.97
2019-05-30T21:30:33.798Z,31.63
2019-05-30T21:33:01.265Z,33.83
2019-05-30T21:35:28.675Z,28.93
2019-05-30T21:37:56.031Z,28.73
2019-05-30T21:40:23.377Z,28.93
2019-05-30T21:43:05.070Z,27.30
2019-05-30T21:45:19.835Z,27.47
2019-05-30T21:47:47.285Z,35.63
2019-05-30T21:50:14.605Z,28.53
2019-05-30T21:52:41.947Z,28.37
2019-05-30T21:55:09.289Z,26.93
2019-05-30T21:57:36.613Z,28.93
2019-05-30T22:00:10.225Z,25.80
2019-05-30T22:02:37.539Z,26.17
2019-05-30T22:05:05.606Z,23.07
2019-05-30T22:07:32.937Z,21.83
2019-05-30T22:10:00.279Z,21.93
2019-05-30T22:12:27.807Z,24.07
2019-05-30T22:14:55.203Z,23.43
2019-05-30T22:17:22.578Z,22.47
2019-05-30T22:19:50.078Z,22.20
2019-05-30T22:22:17.390Z,19.83
2019-05-30T22:24:46.132Z,26.03
2019-05-30T22:27:13.699Z,21.23
2019-05-30T22:29:42.132Z,23.57
2019-05-30T22:32:09.642Z,22.97
2019-05-30T22:34:36.970Z,24.10
2019-05-30T22:37:04.408Z,24.97
2019-05-30T22:39:31.759Z,21.47
2019-05-30T22:42:01.617Z,20.40
2019-05-30T22:44:28.963Z,25.40
2019-05-30T22:46:56.912Z,23.10
2019-05-30T22:49:24.598Z,26.23
2019-05-30T22:51:53.099Z,23.30
2019-05-30T22:54:20.477Z,27.30
2019-05-30T22:56:47.880Z,24.60
2019-05-30T22:59:15.254Z,21.87
2019-05-30T23:01:42.651Z,24.33
2019-05-30T23:04:09.980Z,24.03
2019-05-30T23:06:37.424Z,25.70
2019-05-30T23:09:05.916Z,22.93
2019-05-30T23:11:33.324Z,28.53
2019-05-30T23:14:00.676Z,23.70
2019-05-30T23:16:28.101Z,28.43
2019-05-30T23:18:56.741Z,24.80
2019-05-30T23:21:24.354Z,24.50
2019-05-30T23:23:51.924Z,27.73
2019-05-30T23:26:20.458Z,27.13
2019-05-30T23:28:47.882Z,24.57
2019-05-30T23:31:15.272Z,28.97
2019-05-30T23:33:42.618Z,26.90
2019-05-30T23:36:09.933Z,27.63
2019-05-30T23:38:37.302Z,25.83
2019-05-30T23:41:04.637Z,28.40
2019-05-30T23:43:31.992Z,31.17
2019-05-30T23:45:59.674Z,35.87
2019-05-30T23:48:27.066Z,40.57
2019-05-30T23:50:54.383Z,31.50
2019-05-30T23:53:21.846Z,34.87
2019-05-30T23:55:50.213Z,32.90
2019-05-30T23:58:17.686Z,27.97
